Time;durP1;ratioP1;P1;durP2;ratioP2;P2;SDS_P1;SDS_P2;PMS_P1;PMS_P2;Temp;Humidity;BMP_temperature;BMP_pressure;BME280_temperature;BME280_humidity;BME280_pressure;Samples;Min_cycle;Max_cycle;Signal;HPM_P1;HPM_P2
2021/04/11 00:00:14;;;;;;;22.03;10.50;;;;;;;9.76;71.25;95425.97;1044442;28;20036;-69
2021/04/11 00:00:44;;;;;;;18.58;10.20;;;;;;;9.80;71.32;95421.69;1044529;28;20473;-68
2021/04/11 00:01:15;;;;;;;18.00;10.43;;;;;;;9.80;71.30;95422.47;1044589;28;20028;-68
2021/04/11 00:01:45;;;;;;;19.40;10.30;;;;;;;9.81;71.55;95418.72;1037145;28;20041;-68
2021/04/11 00:02:16;;;;;;;18.30;11.03;;;;;;;9.82;71.57;95423.00;1040297;28;20081;-68
2021/04/11 00:02:46;;;;;;;20.00;10.63;;;;;;;9.77;72.07;95420.34;1040345;28;20040;-68
2021/04/11 00:03:18;;;;;;;15.70;10.37;;;;;;;9.76;71.75;95423.31;1040478;28;20441;-68
2021/04/11 00:03:49;;;;;;;19.23;10.80;;;;;;;9.72;71.92;95416.94;1044738;28;20097;-69
2021/04/11 00:04:19;;;;;;;18.77;11.03;;;;;;;9.72;71.87;95425.72;1044854;28;20163;-68
2021/04/11 00:04:51;;;;;;;16.67;10.33;;;;;;;9.68;71.81;95411.38;1044734;28;20025;-68
2021/04/11 00:05:23;;;;;;;18.33;10.73;;;;;;;9.70;71.88;95424.44;1044856;28;20025;-68
2021/04/11 00:05:54;;;;;;;19.35;10.90;;;;;;;9.64;71.73;95415.66;1044665;28;20072;-69
2021/04/11 00:06:24;;;;;;;18.30;11.07;;;;;;;9.64;72.22;95415.66;1044882;28;20031;-69
2021/04/11 00:06:55;;;;;;;16.03;10.27;;;;;;;9.62;72.13;95415.13;1044838;28;20358;-69
2021/04/11 00:07:25;;;;;;;19.13;11.10;;;;;;;9.58;72.57;95416.78;1044824;28;20071;-69
2021/04/11 00:07:56;;;;;;;16.20;10.80;;;;;;;9.54;72.98;95421.06;1044921;28;20044;-69
2021/04/11 00:08:27;;;;;;;19.97;11.13;;;;;;;9.38;73.65;95418.50;1044903;28;20079;-68
2021/04/11 00:08:57;;;;;;;17.87;10.93;;;;;;;9.38;73.64;95415.84;1045049;28;20414;-68
2021/04/11 00:09:27;;;;;;;20.00;11.50;;;;;;;9.40;73.85;95417.41;1044553;28;20028;-69
2021/04/11 00:09:58;;;;;;;17.53;11.47;;;;;;;9.45;73.21;95418.19;1044809;28;20025;-69
2021/04/11 00:10:31;;;;;;;21.77;11.20;;;;;;;9.50;73.07;95420.81;1045072;28;20029;-69
2021/04/11 00:11:02;;;;;;;16.88;11.05;;;;;;;9.51;72.75;95425.06;1044698;28;20363;-69
2021/04/11 00:11:32;;;;;;;19.30;11.77;;;;;;;9.48;72.97;95419.50;1045175;28;20116;-69
2021/04/11 00:12:03;;;;;;;19.07;11.60;;;;;;;9.38;73.28;95420.38;1044826;28;20027;-69
2021/04/11 00:12:33;;;;;;;18.13;11.30;;;;;;;9.36;73.88;95415.28;1041109;28;20120;-69
2021/04/11 00:13:05;;;;;;;19.43;11.13;;;;;;;9.37;73.76;95418.78;1040591;28;20025;-69
2021/04/11 00:13:37;;;;;;;21.10;11.20;;;;;;;9.40;73.63;95415.53;1040610;28;20489;-69
2021/04/11 00:14:08;;;;;;;21.88;11.55;;;;;;;9.44;73.61;95413.13;1040535;28;20033;-69
2021/04/11 00:14:38;;;;;;;20.70;11.70;;;;;;;9.46;73.38;95413.66;1040549;28;20375;-69
2021/04/11 00:15:10;;;;;;;20.10;12.50;;;;;;;9.48;73.17;95417.66;1040569;28;20079;-69
2021/04/11 00:15:40;;;;;;;20.90;11.70;;;;;;;9.50;73.01;95409.34;1040612;28;20021;-69
2021/04/11 00:16:11;;;;;;;17.10;11.13;;;;;;;9.50;73.10;95414.69;1040552;28;20029;-69
2021/04/11 00:16:41;;;;;;;18.50;11.80;;;;;;;9.49;73.24;95413.09;1040608;28;20017;-68
2021/04/11 00:17:11;;;;;;;16.80;11.00;;;;;;;9.45;73.56;95412.84;1040596;28;20029;-69
2021/04/11 00:17:42;;;;;;;19.10;12.03;;;;;;;9.49;73.46;95410.44;1040626;28;20055;-68
2021/04/11 00:18:12;;;;;;;19.40;11.90;;;;;;;9.52;73.42;95417.88;1040533;28;20029;-68
2021/04/11 00:18:43;;;;;;;24.40;11.73;;;;;;;9.49;73.58;95419.22;1040572;28;20017;-68
2021/04/11 00:19:13;;;;;;;19.73;11.83;;;;;;;9.43;73.50;95416.88;1040566;28;20133;-69
2021/04/11 00:19:44;;;;;;;16.83;11.67;;;;;;;9.46;73.51;95413.66;1040668;28;20029;-68
2021/04/11 00:20:14;;;;;;;22.27;11.70;;;;;;;9.42;73.91;95415.25;1040532;28;20036;-68
2021/04/11 00:20:45;;;;;;;20.23;11.50;;;;;;;9.40;74.09;95404.09;1040480;28;20017;-68
2021/04/11 00:21:15;;;;;;;19.20;11.87;;;;;;;9.39;73.75;95408.63;1040568;28;20033;-68
2021/04/11 00:21:46;;;;;;;21.43;11.27;;;;;;;9.42;73.71;95413.41;1040559;28;20090;-69
2021/04/11 00:22:17;;;;;;;21.27;11.70;;;;;;;9.48;73.17;95412.31;1040486;28;20098;-68
2021/04/11 00:22:47;;;;;;;14.43;10.70;;;;;;;9.48;73.61;95414.97;1040573;28;20374;-68
2021/04/11 00:23:18;;;;;;;18.60;11.47;;;;;;;9.50;73.42;95404.03;1040599;28;20079;-68
2021/04/11 00:23:48;;;;;;;23.80;11.65;;;;;;;9.47;73.68;95420.56;1040554;28;20449;-68
2021/04/11 00:24:19;;;;;;;19.80;11.20;;;;;;;9.46;73.91;95418.97;1040571;28;20430;-68
2021/04/11 00:24:49;;;;;;;17.40;11.50;;;;;;;9.49;73.59;95407.75;1040574;28;20502;-68
2021/04/11 00:25:26;;;;;;;20.03;11.10;;;;;;;9.50;73.51;95415.47;1040598;28;20481;-67
2021/04/11 00:25:56;;;;;;;16.65;10.75;;;;;;;9.53;73.32;95414.16;1040449;28;20022;-69
2021/04/11 00:26:27;;;;;;;18.17;11.67;;;;;;;9.50;73.61;95414.69;1040540;28;20032;-68
2021/04/11 00:26:57;;;;;;;17.97;10.77;;;;;;;9.46;73.90;95406.44;1040094;28;20047;-68
2021/04/11 00:27:28;;;;;;;17.80;11.23;;;;;;;9.42;74.06;95413.41;1040273;28;20021;-69
2021/04/11 00:27:58;;;;;;;16.97;10.50;;;;;;;9.32;74.45;95416.16;1040154;28;20021;-69
2021/04/11 00:28:28;;;;;;;17.10;10.50;;;;;;;9.22;75.14;95417.00;1040293;28;20381;-69
2021/04/11 00:28:59;;;;;;;16.47;11.00;;;;;;;9.24;74.87;95414.84;1040401;28;20022;-69
2021/04/11 00:29:29;;;;;;;16.83;10.83;;;;;;;9.27;74.73;95414.31;1042540;28;20060;-69
2021/04/11 00:30:00;;;;;;;18.40;10.57;;;;;;;9.29;74.75;95414.03;1044632;28;20025;-69
2021/04/11 00:30:31;;;;;;;19.23;11.00;;;;;;;9.29;74.79;95408.69;1044697;28;20024;-69
2021/04/11 00:31:01;;;;;;;18.85;10.60;;;;;;;9.23;75.03;95410.59;1044206;28;20013;-69
2021/04/11 00:31:32;;;;;;;18.27;10.63;;;;;;;9.23;75.26;95402.59;1044322;28;20100;-69
2021/04/11 00:32:06;;;;;;;18.30;10.07;;;;;;;9.22;75.46;95410.88;1044281;28;20143;-69
2021/04/11 00:32:36;;;;;;;18.23;10.27;;;;;;;9.22;75.11;95414.34;1044388;28;20009;-69
2021/04/11 00:33:08;;;;;;;21.00;10.93;;;;;;;9.22;74.97;95408.19;1044479;28;20107;-68
2021/04/11 00:33:39;;;;;;;18.38;10.55;;;;;;;9.23;75.08;95410.59;1044206;28;20028;-68
2021/04/11 00:34:10;;;;;;;18.42;10.27;;;;;;;9.22;74.98;95413.53;1044288;28;20021;-68
2021/04/11 00:34:40;;;;;;;17.90;10.07;;;;;;;9.18;75.12;95415.94;1040033;28;20029;-69
2021/04/11 00:35:11;;;;;;;16.40;9.57;;;;;;;9.14;75.28;95412.22;1040299;28;20025;-68
2021/04/11 00:35:44;;;;;;;19.00;9.37;;;;;;;9.03;75.72;95400.03;1044309;28;20021;-68
2021/04/11 00:36:16;;;;;;;15.40;9.70;;;;;;;9.02;76.21;95407.22;1044285;28;20266;-68
2021/04/11 00:36:48;;;;;;;16.40;10.10;;;;;;;9.06;75.72;95400.28;1044681;28;20021;-68
2021/04/11 00:37:19;;;;;;;14.27;9.50;;;;;;;9.10;76.12;95403.19;1044118;28;20013;-68
2021/04/11 00:37:49;;;;;;;16.60;10.27;;;;;;;9.13;75.71;95405.31;1044286;28;20029;-68
2021/04/11 00:38:20;;;;;;;16.33;9.70;;;;;;;9.07;76.18;95399.22;1044309;28;20021;-68
2021/04/11 00:38:50;;;;;;;17.10;9.73;;;;;;;9.08;75.79;95402.66;1044296;28;20029;-68
2021/04/11 00:39:20;;;;;;;22.10;10.33;;;;;;;9.01;76.24;95399.50;1044520;28;20067;-68
2021/04/11 00:39:51;;;;;;;16.00;9.37;;;;;;;9.02;76.27;95399.22;1044617;28;20067;-68
2021/04/11 00:40:24;;;;;;;13.80;9.87;;;;;;;9.02;76.75;95401.91;1044656;28;20043;-68
2021/04/11 00:40:57;;;;;;;12.52;9.02;;;;;;;9.05;76.17;95398.66;1044255;28;20025;-68
2021/04/11 00:41:39;;;;;;;17.05;9.27;;;;;;;9.04;76.20;95398.94;1036011;28;20041;-68
2021/04/11 00:42:20;;;;;;;17.60;9.40;;;;;;;9.01;76.13;95396.84;1035832;28;20581;-68
2021/04/11 00:42:53;;;;;;;15.23;8.93;;;;;;;9.07;76.14;95398.41;1035494;28;20040;-68
2021/04/11 00:43:23;;;;;;;12.50;8.60;;;;;;;9.06;76.27;95399.50;1035478;28;20022;-68
2021/04/11 00:43:54;;;;;;;15.97;8.90;;;;;;;9.03;76.10;95390.16;1033886;28;20022;-69
2021/04/11 00:44:24;;;;;;;14.03;8.63;;;;;;;8.98;76.07;95389.38;1028016;28;20609;-69
2021/04/11 00:45:31;;;;;;;15.00;9.10;;;;;;;8.94;76.79;95397.13;1028158;28;20030;-69
2021/04/11 00:46:20;;;;;;;19.20;9.68;;;;;;;8.93;76.57;95394.75;1037091;28;20022;-69
2021/04/11 00:46:55;;;;;;;14.13;9.13;;;;;;;8.97;76.63;95387.81;1040540;28;20042;-69
2021/04/11 00:47:25;;;;;;;13.23;8.93;;;;;;;8.99;76.72;95397.09;1035880;28;20029;-68
2021/04/11 00:47:56;;;;;;;17.00;9.23;;;;;;;8.99;76.50;95385.66;1032024;28;20041;-67
2021/04/11 00:48:27;;;;;;;14.67;8.50;;;;;;;8.99;76.50;95393.66;1024017;29;20465;-66
2021/04/11 00:49:01;;;;;;;16.13;8.93;;;;;;;8.98;76.82;95392.06;1021004;28;20024;-68
2021/04/11 00:49:38;;;;;;;12.98;9.02;;;;;;;9.01;76.64;95396.84;1028557;28;20027;-67
2021/04/11 00:50:11;;;;;;;17.65;8.88;;;;;;;9.02;76.29;95395.78;1035289;28;20026;-68
2021/04/11 00:51:04;;;;;;;17.83;8.40;;;;;;;9.00;77.12;95389.91;1033770;28;20476;-68
2021/04/11 00:51:35;;;;;;;18.98;8.82;;;;;;;9.01;76.43;95394.97;1031940;28;20527;-68
2021/04/11 00:52:07;;;;;;;13.37;9.10;;;;;;;9.05;76.36;95395.19;1023932;29;20011;-67
2021/04/11 00:52:37;;;;;;;18.02;8.48;;;;;;;9.03;76.41;95392.81;1030629;28;20018;-68
2021/04/11 00:53:08;;;;;;;13.70;8.90;;;;;;;9.00;76.50;95392.56;1030358;28;20019;-67
2021/04/11 00:53:38;;;;;;;16.03;8.73;;;;;;;8.97;76.58;95393.94;1032583;28;20476;-68
2021/04/11 00:54:09;;;;;;;14.43;8.90;;;;;;;9.00;76.68;95390.69;1040190;28;20502;-67
2021/04/11 00:54:39;;;;;;;15.23;9.17;;;;;;;9.03;76.73;95389.38;1036081;28;20030;-67
2021/04/11 00:55:11;;;;;;;13.77;8.77;;;;;;;9.02;76.85;95390.44;1036112;28;20021;-68
2021/04/11 00:55:41;;;;;;;14.88;8.02;;;;;;;8.95;77.15;95388.06;1031927;28;20022;-67
2021/04/11 00:56:12;;;;;;;15.83;8.77;;;;;;;8.95;77.20;95389.91;1028166;28;20380;-69
2021/04/11 00:56:43;;;;;;;12.43;8.63;;;;;;;8.98;77.13;95387.53;1027918;28;20027;-68
2021/04/11 00:57:13;;;;;;;14.53;7.83;;;;;;;8.98;76.64;95386.72;1028301;28;20027;-68
2021/04/11 00:57:43;;;;;;;16.00;8.70;;;;;;;8.99;76.95;95394.44;1028045;28;20030;-68
2021/04/11 00:58:15;;;;;;;16.30;9.30;;;;;;;8.99;76.83;95388.31;1031987;28;20038;-69
2021/04/11 00:58:45;;;;;;;18.15;8.65;;;;;;;9.01;76.85;95389.66;1031979;28;20383;-68
2021/04/11 00:59:15;;;;;;;17.77;8.40;;;;;;;9.06;76.75;95394.16;1028291;28;20038;-69
2021/04/11 00:59:46;;;;;;;16.13;8.43;;;;;;;9.00;76.78;95389.91;1032164;28;20073;-68
2021/04/11 01:00:17;;;;;;;16.27;8.50;;;;;;;9.06;76.90;95384.28;1032040;28;20033;-69
2021/04/11 01:00:47;;;;;;;16.33;8.30;;;;;;;9.07;76.81;95385.09;1032090;28;20033;-69
2021/04/11 01:01:18;;;;;;;15.43;8.57;;;;;;;9.07;76.44;95382.41;1037895;28;20028;-69
2021/04/11 01:01:48;;;;;;;15.00;8.20;;;;;;;9.06;76.44;95386.97;1041887;28;20033;-69
2021/04/11 01:02:19;;;;;;;13.43;8.17;;;;;;;9.07;76.66;95377.09;1046081;28;20028;-68
2021/04/11 01:02:49;;;;;;;14.83;7.97;;;;;;;9.06;76.49;95381.63;1041960;28;20026;-68
2021/04/11 01:03:26;;;;;;;13.27;8.43;;;;;;;9.10;76.29;95384.50;1033829;28;20029;-69
2021/04/11 01:03:57;;;;;;;19.25;9.18;;;;;;;9.08;76.48;95384.00;1028168;28;20118;-68
2021/04/11 01:04:27;;;;;;;18.43;8.63;;;;;;;9.10;76.74;95390.66;1029006;28;20037;-68
2021/04/11 01:04:58;;;;;;;13.37;8.10;;;;;;;9.08;76.70;95390.13;1034042;28;20023;-68
2021/04/11 01:05:32;;;;;;;12.53;8.60;;;;;;;9.07;76.81;95385.09;1040177;28;20052;-68
2021/04/11 01:06:07;;;;;;;15.00;8.52;;;;;;;9.07;76.85;95388.53;1039616;28;20022;-68
2021/04/11 01:06:39;;;;;;;13.93;8.43;;;;;;;9.09;76.26;95389.06;1039767;28;20021;-68
2021/04/11 01:07:11;;;;;;;14.40;7.88;;;;;;;9.07;76.73;95383.22;1036068;28;20077;-70
2021/04/11 01:07:43;;;;;;;14.68;7.85;;;;;;;9.11;77.00;95383.47;1032882;28;20049;-69
2021/04/11 01:08:15;;;;;;;12.05;8.23;;;;;;;9.09;76.78;95388.25;1027907;28;20018;-69
2021/04/11 01:08:46;;;;;;;14.50;8.25;;;;;;;9.09;76.46;95380.25;1031957;28;20022;-69
2021/04/11 01:09:25;;;;;;;14.07;8.60;;;;;;;9.10;76.60;95379.97;1028592;28;20027;-68
2021/04/11 01:09:56;;;;;;;13.63;7.78;;;;;;;9.08;76.61;95378.69;1032033;28;20041;-69
2021/04/11 01:10:28;;;;;;;13.97;7.83;;;;;;;9.06;76.65;95378.97;1029456;28;20585;-69
2021/04/11 01:11:11;;;;;;;17.33;8.23;;;;;;;9.07;76.84;95377.88;1027973;28;20011;-69
2021/04/11 01:11:42;;;;;;;12.05;8.15;;;;;;;9.07;76.79;95371.75;1023998;29;20476;-69
2021/04/11 01:12:15;;;;;;;12.77;7.70;;;;;;;9.04;76.81;95382.97;1026294;28;20019;-68
2021/04/11 01:12:45;;;;;;;15.45;8.20;;;;;;;8.99;77.35;95373.13;1032239;28;20558;-68
2021/04/11 01:13:16;;;;;;;14.00;7.80;;;;;;;8.92;77.69;95371.84;1037639;28;20021;-68
2021/04/11 01:13:51;;;;;;;13.73;8.17;;;;;;;8.91;77.42;95371.03;1036019;28;20013;-68
2021/04/11 01:14:21;;;;;;;15.88;8.77;;;;;;;8.96;77.29;95373.69;1032656;28;20427;-68
2021/04/11 01:14:52;;;;;;;11.67;7.70;;;;;;;8.95;77.24;95377.41;1031931;28;20025;-68
2021/04/11 01:15:27;;;;;;;16.30;7.83;;;;;;;8.98;77.44;95370.72;1033491;28;20014;-68
2021/04/11 01:15:58;;;;;;;15.65;8.57;;;;;;;8.99;77.32;95370.44;1036856;28;20033;-67
2021/04/11 01:16:28;;;;;;;14.43;7.90;;;;;;;9.03;77.33;95376.03;1040746;28;20056;-68
2021/04/11 01:16:59;;;;;;;10.47;7.53;;;;;;;8.97;77.66;95375.28;1040146;28;20026;-68
2021/04/11 01:17:29;;;;;;;14.63;8.27;;;;;;;8.98;77.72;95371.53;1036047;28;20105;-68
2021/04/11 01:18:00;;;;;;;13.37;7.73;;;;;;;8.99;77.52;95372.31;1031967;28;20125;-68
2021/04/11 01:18:30;;;;;;;14.97;8.33;;;;;;;8.98;77.51;95371.53;1031876;28;20010;-67
2021/04/11 01:19:01;;;;;;;13.70;7.70;;;;;;;9.01;77.26;95367.53;1036005;28;20077;-67
2021/04/11 01:19:33;;;;;;;14.07;8.23;;;;;;;9.01;77.06;95365.66;1032013;28;20018;-68
2021/04/11 01:20:04;;;;;;;12.05;7.97;;;;;;;9.02;77.26;95366.44;1035917;28;20022;-68
2021/04/11 01:20:34;;;;;;;13.90;8.20;;;;;;;9.05;76.99;95371.22;1035932;28;20018;-68
2021/04/11 01:21:20;;;;;;;13.63;8.10;;;;;;;9.05;76.89;95360.56;1032734;28;20431;-69
2021/04/11 01:22:27;;;;;;;15.55;7.97;;;;;;;9.02;77.11;95369.13;1034098;28;20455;-69
2021/04/11 01:23:16;;;;;;;13.73;7.97;;;;;;;9.04;77.05;95369.63;1038877;28;20025;-69
2021/04/11 01:24:09;;;;;;;13.90;7.97;;;;;;;9.00;77.11;95365.91;1044360;28;20009;-69
2021/04/11 01:24:58;;;;;;;10.30;7.22;;;;;;;9.03;76.84;95366.16;1040084;28;20014;-69
2021/04/11 01:25:31;;;;;;;12.23;7.60;;;;;;;9.06;76.69;95370.97;1040073;28;20493;-69
2021/04/11 01:26:01;;;;;;;15.13;7.45;;;;;;;9.05;76.92;95364.00;1035928;28;20019;-69
2021/04/11 01:26:32;;;;;;;15.20;8.00;;;;;;;9.08;76.76;95366.13;1035429;28;20538;-68
2021/04/11 01:27:03;;;;;;;17.37;8.17;;;;;;;9.10;76.68;95371.19;1027837;28;20018;-67
2021/04/11 01:27:34;;;;;;;10.83;7.20;;;;;;;9.13;76.78;95372.53;1024335;28;20030;-68
2021/04/11 01:28:07;;;;;;;16.27;8.30;;;;;;;9.13;76.83;95362.66;1028133;28;20041;-67
2021/04/11 01:28:42;;;;;;;14.77;7.20;;;;;;;9.12;76.26;95366.41;1032467;28;20499;-68
2021/04/11 01:29:12;;;;;;;12.90;7.78;;;;;;;9.17;76.34;95369.03;1035946;28;20022;-68
2021/04/11 01:29:43;;;;;;;10.57;7.17;;;;;;;9.17;76.15;95366.38;1031719;28;20328;-68
2021/04/11 01:30:25;;;;;;;13.63;8.00;;;;;;;9.15;76.23;95365.81;1027668;28;20029;-67
2021/04/11 01:31:05;;;;;;;14.65;7.85;;;;;;;9.18;76.02;95367.16;1029515;28;20081;-68
2021/04/11 01:31:35;;;;;;;14.13;7.40;;;;;;;9.17;75.99;95362.91;1029612;28;20018;-67
2021/04/11 01:32:07;;;;;;;12.27;7.90;;;;;;;9.17;75.79;95362.91;1034754;28;20457;-69
2021/04/11 01:32:38;;;;;;;12.48;7.35;;;;;;;9.13;75.65;95361.84;1035929;28;20041;-69
2021/04/11 01:33:12;;;;;;;12.63;7.50;;;;;;;9.14;75.83;95366.91;1035870;28;20113;-69
2021/04/11 01:33:44;;;;;;;11.25;6.93;;;;;;;9.14;76.48;95364.25;1035816;28;20602;-69
2021/04/11 01:34:15;;;;;;;13.73;7.28;;;;;;;9.10;76.12;95366.66;1027870;28;20015;-69
2021/04/11 01:34:45;;;;;;;17.63;7.60;;;;;;;9.11;76.04;95367.47;1027939;28;20073;-67
2021/04/11 01:35:17;;;;;;;13.65;7.32;;;;;;;9.12;76.00;95361.06;1028597;28;20023;-67
2021/04/11 01:35:50;;;;;;;14.32;7.78;;;;;;;9.14;76.01;95360.78;1032198;28;20473;-68
2021/04/11 01:36:21;;;;;;;14.27;6.80;;;;;;;9.18;76.04;95365.28;1027768;28;20515;-68
2021/04/11 01:36:52;;;;;;;14.10;7.50;;;;;;;9.18;76.08;95364.50;1023780;29;20498;-68
2021/04/11 01:37:23;;;;;;;10.73;6.93;;;;;;;9.20;76.03;95363.13;1027845;28;20040;-68
2021/04/11 01:37:53;;;;;;;14.67;7.20;;;;;;;9.21;75.89;95359.38;1031780;28;20109;-68
2021/04/11 01:38:24;;;;;;;14.07;7.33;;;;;;;9.23;75.75;95361.78;1031791;28;20738;-69
2021/04/11 01:38:54;;;;;;;14.93;7.50;;;;;;;9.21;75.72;95362.06;1023825;28;20114;-69
2021/04/11 01:39:27;;;;;;;13.47;7.17;;;;;;;9.24;75.82;95350.84;1020151;28;20020;-68
2021/04/11 01:39:57;;;;;;;10.05;7.22;;;;;;;9.24;75.84;95358.84;1024140;28;20424;-69
2021/04/11 01:40:50;;;;;;;10.27;6.97;;;;;;;9.25;75.29;95357.78;1028437;28;20023;-68
2021/04/11 01:41:33;;;;;;;14.00;6.93;;;;;;;9.25;75.24;95364.97;1030981;28;20036;-68
2021/04/11 01:42:04;;;;;;;10.57;7.15;;;;;;;9.25;75.38;95359.63;1027787;28;20030;-68
2021/04/11 01:42:35;;;;;;;13.88;7.45;;;;;;;9.25;75.63;95356.97;1023871;29;20058;-68
2021/04/11 01:43:06;;;;;;;14.90;7.30;;;;;;;9.21;75.67;95354.06;1027766;28;20031;-68
2021/04/11 01:43:37;;;;;;;18.07;7.73;;;;;;;9.25;75.40;95354.31;1024632;28;20535;-69
2021/04/11 01:44:08;;;;;;;13.25;7.10;;;;;;;9.27;75.42;95358.31;1024415;28;20322;-68
2021/04/11 01:44:41;;;;;;;13.87;7.60;;;;;;;9.27;75.65;95358.31;1031841;28;20088;-68
2021/04/11 01:45:12;;;;;;;12.23;7.43;;;;;;;9.30;75.03;95352.41;1033454;28;20105;-68
2021/04/11 01:45:43;;;;;;;16.60;7.50;;;;;;;9.30;75.14;95347.06;1036593;28;20033;-68
2021/04/11 01:46:13;;;;;;;11.60;6.77;;;;;;;9.29;75.13;95344.69;1031668;28;20022;-68
2021/04/11 01:46:44;;;;;;;13.90;7.17;;;;;;;9.28;74.94;95354.56;1032049;28;20038;-69
2021/04/11 01:47:14;;;;;;;11.93;7.10;;;;;;;9.27;74.94;95347.66;1031759;28;20042;-69
2021/04/11 01:47:45;;;;;;;13.27;7.03;;;;;;;9.27;75.29;95355.63;1031944;28;20026;-69
2021/04/11 01:48:16;;;;;;;14.70;7.40;;;;;;;9.30;75.00;95344.41;1036221;28;20018;-69
2021/04/11 01:48:47;;;;;;;13.32;7.00;;;;;;;9.30;74.98;95349.72;1040255;28;20071;-69
2021/04/11 01:49:19;;;;;;;13.23;7.60;;;;;;;9.31;74.88;95354.00;1044048;28;20382;-69
2021/04/11 01:49:49;;;;;;;13.50;7.43;;;;;;;9.34;74.58;95352.66;1039914;28;20013;-68
2021/04/11 01:50:20;;;;;;;15.33;7.23;;;;;;;9.36;74.38;95350.50;1040185;28;20145;-69
2021/04/11 01:50:50;;;;;;;12.77;7.73;;;;;;;9.32;75.06;95355.59;1039966;28;20037;-68
2021/04/11 01:51:24;;;;;;;13.47;7.00;;;;;;;9.36;74.80;95351.28;1031784;28;20073;-68
2021/04/11 01:52:11;;;;;;;12.98;7.18;;;;;;;9.33;74.81;95351.84;1027715;28;20019;-69
2021/04/11 01:52:41;;;;;;;12.73;7.10;;;;;;;9.35;74.76;95348.91;1033156;28;20053;-68
2021/04/11 01:53:12;;;;;;;14.53;7.03;;;;;;;9.34;74.81;95350.78;1037145;28;20437;-69
2021/04/11 01:53:42;;;;;;;11.37;6.83;;;;;;;9.33;74.60;95345.72;1037994;28;20033;-69
2021/04/11 01:54:15;;;;;;;11.80;7.27;;;;;;;9.32;74.72;95352.94;1031715;28;20022;-69
2021/04/11 01:54:46;;;;;;;11.35;6.65;;;;;;;9.34;74.69;95347.31;1027727;28;20503;-68
2021/04/11 01:55:16;;;;;;;13.23;7.43;;;;;;;9.24;74.86;95344.72;1031669;28;20088;-68
2021/04/11 01:55:47;;;;;;;13.57;7.30;;;;;;;9.29;74.83;95350.03;1031857;28;20010;-69
2021/04/11 01:56:23;;;;;;;12.93;7.30;;;;;;;9.31;74.71;95345.19;1032307;28;20018;-69
2021/04/11 01:56:54;;;;;;;10.93;7.35;;;;;;;9.29;74.79;95347.34;1037155;28;20038;-69
2021/04/11 01:57:27;;;;;;;13.60;6.90;;;;;;;9.31;74.94;95343.31;1039880;28;20163;-68
2021/04/11 01:57:58;;;;;;;13.20;7.15;;;;;;;9.33;74.61;95343.06;1039876;28;20021;-69
2021/04/11 01:58:28;;;;;;;11.73;7.27;;;;;;;9.30;74.94;95347.06;1041111;28;20009;-69
2021/04/11 01:58:59;;;;;;;14.60;7.23;;;;;;;9.31;74.88;95343.31;1040472;28;20021;-69
2021/04/11 01:59:29;;;;;;;16.97;8.23;;;;;;;9.32;74.76;95344.94;1044031;28;20064;-68
2021/04/11 02:00:06;;;;;;;17.20;7.27;;;;;;;9.35;74.64;95343.56;1040022;28;20060;-69
2021/04/11 02:00:42;;;;;;;12.35;7.72;;;;;;;9.33;74.65;95351.06;1038598;28;20039;-68
2021/04/11 02:01:22;;;;;;;12.23;7.43;;;;;;;9.32;74.93;95349.47;1038694;28;20534;-69
2021/04/11 02:01:53;;;;;;;13.82;6.95;;;;;;;9.32;74.83;95347.59;1039955;28;20071;-69
2021/04/11 02:02:23;;;;;;;12.97;7.33;;;;;;;9.33;74.38;95343.84;1032592;28;20076;-68
2021/04/11 02:02:57;;;;;;;14.63;7.53;;;;;;;9.35;74.94;95348.91;1028584;28;20487;-69
2021/04/11 02:03:28;;;;;;;12.23;7.47;;;;;;;9.36;75.02;95342.50;1024278;28;20019;-69
2021/04/11 02:04:00;;;;;;;10.67;7.13;;;;;;;9.38;74.79;95346.50;1024946;28;20357;-69
2021/04/11 02:04:30;;;;;;;12.90;7.38;;;;;;;9.34;74.63;95342.78;1032496;28;20490;-68
2021/04/11 02:05:00;;;;;;;16.80;7.23;;;;;;;9.35;74.88;95349.69;1032421;28;20022;-68
2021/04/11 02:05:31;;;;;;;11.03;7.47;;;;;;;9.37;75.00;95352.91;1036068;28;20025;-69
2021/04/11 02:06:03;;;;;;;13.67;7.40;;;;;;;9.38;74.58;95346.50;1035870;28;20006;-68
2021/04/11 02:06:35;;;;;;;12.82;7.78;;;;;;;9.37;74.73;95352.13;1032013;28;20019;-69
2021/04/11 02:07:06;;;;;;;12.13;7.13;;;;;;;9.35;75.01;95349.69;1035920;28;20021;-69
2021/04/11 02:07:36;;;;;;;9.88;7.03;;;;;;;9.34;74.66;95345.44;1035755;28;20408;-69
2021/04/11 02:08:09;;;;;;;11.20;7.00;;;;;;;9.36;75.09;95340.63;1027845;28;20011;-69
2021/04/11 02:08:40;;;;;;;11.18;6.97;;;;;;;9.37;74.81;95347.56;1031674;28;20099;-68
2021/04/11 02:09:20;;;;;;;13.02;7.47;;;;;;;9.38;74.58;95345.69;1028200;28;20465;-69
2021/04/11 02:09:50;;;;;;;12.40;7.45;;;;;;;9.38;74.59;95349.16;1029463;28;20089;-69
2021/04/11 02:10:24;;;;;;;14.73;7.23;;;;;;;9.37;74.78;95347.56;1035629;28;20072;-68
2021/04/11 02:10:55;;;;;;;13.10;7.15;;;;;;;9.39;74.72;95347.28;1025556;28;20035;-68
2021/04/11 02:11:25;;;;;;;13.27;8.27;;;;;;;9.38;74.46;95346.50;1023850;29;20015;-69
2021/04/11 02:11:56;;;;;;;15.50;7.57;;;;;;;9.36;74.51;95345.16;1023815;29;20023;-69
2021/04/11 02:12:26;;;;;;;11.77;7.23;;;;;;;9.37;74.63;95344.91;1023805;28;20076;-68
2021/04/11 02:12:57;;;;;;;14.30;7.53;;;;;;;9.37;74.80;95349.44;1023846;28;20034;-69
2021/04/11 02:13:30;;;;;;;12.30;7.10;;;;;;;9.36;74.98;95345.97;1023790;29;20023;-69
2021/04/11 02:14:00;;;;;;;13.43;7.70;;;;;;;9.34;74.43;95342.78;1024074;28;20035;-69
2021/04/11 02:14:30;;;;;;;14.83;7.37;;;;;;;9.33;74.85;95343.06;1024737;28;20027;-67
2021/04/11 02:15:04;;;;;;;11.73;7.40;;;;;;;9.31;75.26;95346.00;1028628;28;20033;-69
2021/04/11 02:15:36;;;;;;;13.45;7.80;;;;;;;9.32;75.08;95349.47;1027644;28;20046;-67
2021/04/11 02:16:07;;;;;;;16.05;7.55;;;;;;;9.29;74.98;95345.47;1031470;28;20030;-67
2021/04/11 02:16:37;;;;;;;10.73;7.30;;;;;;;9.31;74.78;95345.19;1031700;28;20039;-68
2021/04/11 02:17:10;;;;;;;11.27;6.90;;;;;;;9.24;75.32;95336.72;1033004;28;20280;-67
2021/04/11 02:17:40;;;;;;;14.98;7.70;;;;;;;9.22;75.43;95338.88;1040183;28;20056;-68
2021/04/11 02:18:11;;;;;;;10.70;7.40;;;;;;;9.23;75.53;95343.13;1036918;28;20521;-68
2021/04/11 02:18:42;;;;;;;13.80;6.72;;;;;;;9.19;75.38;95342.88;1040696;28;20532;-68
2021/04/11 02:19:13;;;;;;;12.70;7.30;;;;;;;9.16;76.10;95346.09;1036591;28;20092;-67
2021/04/11 02:19:43;;;;;;;12.13;6.88;;;;;;;9.15;75.79;95339.16;1036839;28;20026;-68
2021/04/11 02:20:14;;;;;;;14.57;7.90;;;;;;;9.17;75.60;95338.91;1036814;28;20018;-68
2021/04/11 02:20:45;;;;;;;10.10;6.82;;;;;;;9.18;75.39;95333.28;1032695;28;20423;-68
2021/04/11 02:21:17;;;;;;;13.73;7.40;;;;;;;9.18;75.63;95333.28;1036767;28;20053;-68
2021/04/11 02:21:51;;;;;;;12.27;7.63;;;;;;;9.18;75.49;95341.28;1037007;28;20108;-68
2021/04/11 02:22:23;;;;;;;14.65;7.25;;;;;;;9.16;75.24;95334.63;1033454;28;20022;-69
2021/04/11 02:22:54;;;;;;;16.02;7.55;;;;;;;9.13;75.92;95335.19;1032431;28;20036;-69
2021/04/11 02:23:25;;;;;;;13.57;7.50;;;;;;;9.14;75.93;95332.25;1032544;28;20029;-68
2021/04/11 02:23:55;;;;;;;12.55;7.22;;;;;;;9.13;75.88;95329.88;1032519;28;20068;-68
2021/04/11 02:24:26;;;;;;;12.13;7.40;;;;;;;9.11;75.97;95333.63;1028734;28;20041;-68
2021/04/11 02:24:57;;;;;;;11.47;7.37;;;;;;;9.12;75.67;95326.41;1028876;28;20063;-67
2021/04/11 02:25:30;;;;;;;15.75;7.55;;;;;;;9.13;75.98;95335.19;1032395;28;20191;-68
2021/04/11 02:26:01;;;;;;;13.07;7.20;;;;;;;9.10;75.36;95325.88;1033076;28;20019;-67
2021/04/11 02:26:33;;;;;;;16.13;8.03;;;;;;;9.09;75.59;95335.75;1037237;28;20045;-68
2021/04/11 02:27:04;;;;;;;11.80;6.90;;;;;;;9.11;76.18;95332.81;1033231;28;20033;-68
2021/04/11 02:27:34;;;;;;;12.70;7.30;;;;;;;9.06;75.86;95328.31;1032375;28;20051;-68
2021/04/11 02:28:05;;;;;;;13.30;7.20;;;;;;;9.01;76.07;95325.69;1032403;28;20033;-68
2021/04/11 02:28:35;;;;;;;11.90;7.40;;;;;;;8.98;76.89;95334.22;1032873;28;20018;-68
2021/04/11 02:29:07;;;;;;;13.77;7.07;;;;;;;8.99;76.48;95324.34;1032700;28;20030;-68
2021/04/11 02:29:38;;;;;;;10.10;6.78;;;;;;;9.01;76.06;95332.88;1036859;28;20612;-69
2021/04/11 02:30:10;;;;;;;10.97;7.27;;;;;;;8.99;76.05;95325.13;1036569;28;20021;-68
2021/04/11 02:30:53;;;;;;;12.60;7.57;;;;;;;8.93;76.65;95328.91;1037061;28;20494;-68
2021/04/11 02:31:24;;;;;;;12.23;6.70;;;;;;;8.93;76.66;95331.56;1040771;28;20056;-68
2021/04/11 02:31:54;;;;;;;11.80;7.45;;;;;;;8.91;76.51;95324.94;1040644;28;20468;-67